createdAt,value
2022-08-01T18:26:35.141Z,32.40
2022-08-01T18:29:02.058Z,31.50
2022-08-01T18:31:29.704Z,30.90
2022-08-01T18:33:57.103Z,30.60
2022-08-01T18:36:33.140Z,30.10
2022-08-01T18:39:05.576Z,29.60
2022-08-01T18:41:35.003Z,29.20
2022-08-01T18:44:05.851Z,29.00
2022-08-01T18:46:40.212Z,28.70
2022-08-01T18:49:09.381Z,28.50
2022-08-01T18:51:40.408Z,28.30
2022-08-01T18:54:11.016Z,28.10
2022-08-01T18:56:38.024Z,27.90
2022-08-01T18:59:05.086Z,27.60
2022-08-01T19:01:32.161Z,27.30
2022-08-01T19:03:59.091Z,27.00
2022-08-01T19:06:27.284Z,26.70
2022-08-01T19:08:58.312Z,26.50
2022-08-01T19:11:28.607Z,26.50
2022-08-01T19:13:55.624Z,26.40
2022-08-01T19:16:22.633Z,26.30
2022-08-01T19:18:49.604Z,26.20
2022-08-01T19:21:16.592Z,26.00
2022-08-01T19:24:02.344Z,25.90
2022-08-01T19:26:31.415Z,25.70
2022-08-01T19:29:04.407Z,25.60
2022-08-01T19:31:31.305Z,25.50
2022-08-01T19:33:58.391Z,25.40
2022-08-01T19:36:26.976Z,25.20
2022-08-01T19:38:55.752Z,25.20
2022-08-01T19:41:23.662Z,25.00
2022-08-01T19:43:51.673Z,24.90
2022-08-01T19:46:19.365Z,24.90
2022-08-01T19:48:53.608Z,24.80
2022-08-01T19:51:32.803Z,24.70
2022-08-01T19:54:05.308Z,24.60
2022-08-01T19:56:39.884Z,24.50
2022-08-01T19:59:10.798Z,24.50
2022-08-01T20:01:37.884Z,24.40
2022-08-01T20:04:06.254Z,24.20
2022-08-01T20:06:34.931Z,24.20
2022-08-01T20:09:02.761Z,24.10
2022-08-01T20:11:29.978Z,24.00
2022-08-01T20:13:57.524Z,23.90
2022-08-01T20:16:25.622Z,23.80
2022-08-01T20:18:53.309Z,23.90
2022-08-01T20:21:21.259Z,23.90
2022-08-01T20:23:50.243Z,23.90
2022-08-01T20:26:18.173Z,23.90
2022-08-01T20:28:49.373Z,23.80
2022-08-01T20:31:17.062Z,23.80
2022-08-01T20:33:47.285Z,23.80
2022-08-01T20:36:25.716Z,23.80
2022-08-01T20:38:55.191Z,23.70
2022-08-01T20:41:25.513Z,23.60
2022-08-01T20:43:55.183Z,23.60
2022-08-01T20:46:27.825Z,23.60
2022-08-01T20:48:57.513Z,23.60
2022-08-01T20:51:28.587Z,23.60
2022-08-01T20:53:56.583Z,23.60
2022-08-01T20:56:49.582Z,23.60
2022-08-01T20:59:56.133Z,23.60
2022-08-01T21:02:52.329Z,23.60
2022-08-01T21:05:58.993Z,23.60
2022-08-01T21:08:50.177Z,23.60
2022-08-01T21:11:21.447Z,23.60
2022-08-01T21:13:50.155Z,23.60
2022-08-01T21:16:28.673Z,23.60
2022-08-01T21:19:18.602Z,23.60
2022-08-01T21:21:53.834Z,23.60
2022-08-01T21:24:29.927Z,23.60
2022-08-01T21:26:58.602Z,23.50
2022-08-01T21:29:26.732Z,23.50
2022-08-01T21:32:11.692Z,23.60
2022-08-01T21:34:39.800Z,23.70
2022-08-01T21:37:09.040Z,23.60
2022-08-01T21:39:43.461Z,23.50
2022-08-01T21:42:18.142Z,23.60
2022-08-01T21:44:47.700Z,23.60
2022-08-01T21:47:15.596Z,23.60
2022-08-01T21:49:43.013Z,23.50
2022-08-01T21:52:18.127Z,23.50
2022-08-01T21:55:04.084Z,23.50
2022-08-01T21:57:44.706Z,23.50
2022-08-01T22:00:25.058Z,23.30
2022-08-01T22:03:11.776Z,23.30
2022-08-01T22:05:50.692Z,23.30
2022-08-01T22:08:28.927Z,23.30
2022-08-01T22:11:00.337Z,23.20
2022-08-01T22:13:27.920Z,23.20
2022-08-01T22:15:57.606Z,23.20
2022-08-01T22:18:26.530Z,23.10
2022-08-01T22:20:57.834Z,23.00
2022-08-01T22:23:24.913Z,22.90
2022-08-01T22:25:54.457Z,22.70
2022-08-01T22:28:23.134Z,22.60
2022-08-01T22:30:52.336Z,22.60
2022-08-01T22:33:20.992Z,22.50
2022-08-01T22:35:51.732Z,22.50
2022-08-01T22:38:20.653Z,22.50
2022-08-01T22:40:53.772Z,22.50
2022-08-01T22:43:26.763Z,22.60
2022-08-01T22:46:20.910Z,22.60
2022-08-01T22:49:12.434Z,22.60
2022-08-01T22:51:55.269Z,22.60
2022-08-01T22:54:43.882Z,22.50
2022-08-01T22:57:16.021Z,22.50
2022-08-01T23:00:00.894Z,22.50
2022-08-01T23:02:33.158Z,22.50
2022-08-01T23:05:21.339Z,22.40
2022-08-01T23:07:53.492Z,22.30
2022-08-01T23:10:26.301Z,22.10
2022-08-01T23:12:55.431Z,22.00
2022-08-01T23:15:23.723Z,22.00
2022-08-01T23:17:51.184Z,22.00
2022-08-01T23:20:19.233Z,22.00
2022-08-01T23:22:47.140Z,21.90
2022-08-01T23:25:15.984Z,21.90
2022-08-01T23:27:54.341Z,22.00
2022-08-01T23:30:34.656Z,22.00
2022-08-01T23:33:02.646Z,22.00
2022-08-01T23:35:30.374Z,21.90
2022-08-01T23:37:58.768Z,21.90
2022-08-01T23:40:30.929Z,21.80
2022-08-01T23:42:58.014Z,21.80
2022-08-01T23:45:24.935Z,21.80
2022-08-01T23:47:52.200Z,21.80
2022-08-01T23:50:19.626Z,21.70
2022-08-01T23:52:53.099Z,21.50
2022-08-01T23:55:36.652Z,21.50
2022-08-01T23:58:06.894Z,21.40
